Houma, LA (70361)

6:46 AM CDT on September 22, 2014 (GMT -0500)
Maple Park | Change Station
CLOSE
Current Station
Personal Weather Station
Location: Houma, LA
Elevation: 20 ft
Nearby Weather Stations

Elev 20 ft 29.60 °N, 90.73 °W | Updated 33 seconds ago

Fog
Fog
70.2 °F
Feels Like 70.2 °F
N
0.0
Wind Variable Wind from North
Gusts 1.6 mph

Today
High -- | Low -- °F
--% Chance of Precip.
Yesterday
High -- | Low -- °F
Precip. -- in
6:51 AM 6:59 PM
Waning Crescent, 3% visible
Pressure 30.02 in
Visibility 1.2 miles
Clouds
Dew Point 70 °F
Humidity 99%
Rainfall 0.00 in
Snow Depth Not available.
UV Not available.
Pollen 10.40 out of 12
Air Quality Not available.
Flu Activity Not available.
METAR KHUM 221055Z AUTO 00000KT 1 1/4SM BR VV007 21/19 A3002 RMK AO2 T02070186

More Conditions Fewer Conditions

Pressure 30.02 in
Visibility 1.2 miles
Clouds
Dew Point 70 °F
Humidity 99%
Rainfall 0.00 in
Snow Depth Not available.
UV Not available.
Pollen 10.40 out of 12
Air Quality Not available.
Flu Activity Not available.
METAR KHUM 221055Z AUTO 00000KT 1 1/4SM BR VV007 21/19 A3002 RMK AO2 T02070186

More Conditions Fewer Conditions

10-Day Weather Forecast

Almanac

Astronomy

Sep. 22, 2014 Rise Set
Actual Time 6:51 AM CDT 6:59 PM CDT
Civil Twilight 6:27 AM CDT 7:23 PM CDT
Nautical Twilight 5:59 AM CDT 7:50 PM CDT
Astronomical Twilight 5:31 AM CDT 8:18 PM CDT
Moon 5:24 AM CDT 6:04 PM CDT
Length of Visible Light 12h 55m
Length of Day
12h 08m
Tomorrow will be 1m 46s shorter.
Waning Crescent, 3% of the Moon is Illuminated
Today
Waning Crescent
Sep 24
New
Oct 1
First Quarter
Oct 8
Full
Oct 15
Last Quarter

Today's Extremes

State Highs State Lows

Community

WunderPhotos

Upload Photos

1,755,409 photos uploaded!

WunderBlogs® & News

Nearby

Snow Depth

Station Depth Elevation
No new snow has been reported.

Earthquake Activity

City Distance Mag. Time & Date
No recent earthquake activity has been reported nearby.
Minimum magnitude displayed is 2.5.

Coastal Water Temperatures

Place Temperature
Amerada Pass, LA 81.0 °F

Nearby Weather Stations